sensor_id;sensor_type;location;lat;lon;timestamp;P1;durP1;ratioP1;P2;durP2;ratioP2
14048;SDS011;7099;53.922;10.728;2023-06-19T00:32:29;8.57;;;6.50;;
14048;SDS011;7099;53.922;10.728;2023-06-19T00:36:34;7.07;;;6.00;;
14048;SDS011;7099;53.922;10.728;2023-06-19T00:40:45;8.00;;;6.75;;
14048;SDS011;7099;53.922;10.728;2023-06-19T00:44:51;7.63;;;6.45;;
14048;SDS011;7099;53.922;10.728;2023-06-19T00:48:56;8.10;;;6.40;;
14048;SDS011;7099;53.922;10.728;2023-06-19T00:53:02;8.88;;;6.60;;
14048;SDS011;7099;53.922;10.728;2023-06-19T00:57:09;9.80;;;6.85;;
14048;SDS011;7099;53.922;10.728;2023-06-19T01:01:15;7.40;;;6.60;;
14048;SDS011;7099;53.922;10.728;2023-06-19T01:05:20;9.97;;;6.50;;
14048;SDS011;7099;53.922;10.728;2023-06-19T01:09:31;7.32;;;6.32;;
14048;SDS011;7099;53.922;10.728;2023-06-19T01:13:49;8.65;;;6.47;;
14048;SDS011;7099;53.922;10.728;2023-06-19T01:18:02;7.35;;;6.40;;
14048;SDS011;7099;53.922;10.728;2023-06-19T01:22:09;7.50;;;6.80;;
14048;SDS011;7099;53.922;10.728;2023-06-19T01:26:17;8.45;;;6.60;;
14048;SDS011;7099;53.922;10.728;2023-06-19T01:30:23;10.02;;;6.55;;
14048;SDS011;7099;53.922;10.728;2023-06-19T01:34:28;7.72;;;6.88;;
14048;SDS011;7099;53.922;10.728;2023-06-19T01:38:35;9.10;;;7.28;;
14048;SDS011;7099;53.922;10.728;2023-06-19T01:42:41;9.98;;;7.15;;
14048;SDS011;7099;53.922;10.728;2023-06-19T01:46:48;9.00;;;6.97;;
14048;SDS011;7099;53.922;10.728;2023-06-19T01:50:55;8.23;;;7.03;;
14048;SDS011;7099;53.922;10.728;2023-06-19T01:55:00;10.07;;;7.32;;
14048;SDS011;7099;53.922;10.728;2023-06-19T01:59:07;7.82;;;7.00;;
14048;SDS011;7099;53.922;10.728;2023-06-19T02:03:12;8.18;;;6.70;;
14048;SDS011;7099;53.922;10.728;2023-06-19T02:07:18;8.05;;;6.70;;
14048;SDS011;7099;53.922;10.728;2023-06-19T02:11:23;7.90;;;7.10;;
14048;SDS011;7099;53.922;10.728;2023-06-19T02:15:29;11.43;;;7.85;;
14048;SDS011;7099;53.922;10.728;2023-06-19T02:19:34;10.10;;;7.10;;
14048;SDS011;7099;53.922;10.728;2023-06-19T02:23:40;9.27;;;7.20;;
14048;SDS011;7099;53.922;10.728;2023-06-19T02:27:45;10.00;;;7.50;;
14048;SDS011;7099;53.922;10.728;2023-06-19T02:31:51;9.38;;;7.47;;
14048;SDS011;7099;53.922;10.728;2023-06-19T02:35:56;8.52;;;7.15;;
14048;SDS011;7099;53.922;10.728;2023-06-19T02:40:04;9.52;;;7.45;;
14048;SDS011;7099;53.922;10.728;2023-06-19T02:44:11;8.98;;;7.45;;
14048;SDS011;7099;53.922;10.728;2023-06-19T02:48:17;10.77;;;7.40;;
14048;SDS011;7099;53.922;10.728;2023-06-19T02:52:24;9.93;;;6.73;;
14048;SDS011;7099;53.922;10.728;2023-06-19T02:56:30;8.32;;;6.70;;
14048;SDS011;7099;53.922;10.728;2023-06-19T03:00:35;8.23;;;6.97;;
14048;SDS011;7099;53.922;10.728;2023-06-19T03:04:40;10.00;;;7.03;;
14048;SDS011;7099;53.922;10.728;2023-06-19T03:08:46;8.13;;;6.60;;
14048;SDS011;7099;53.922;10.728;2023-06-19T03:12:52;8.32;;;6.53;;
14048;SDS011;7099;53.922;10.728;2023-06-19T03:16:57;8.95;;;6.40;;
14048;SDS011;7099;53.922;10.728;2023-06-19T03:21:03;8.73;;;6.10;;
14048;SDS011;7099;53.922;10.728;2023-06-19T03:25:08;7.43;;;6.20;;
14048;SDS011;7099;53.922;10.728;2023-06-19T03:29:14;8.00;;;6.30;;
14048;SDS011;7099;53.922;10.728;2023-06-19T03:33:19;7.35;;;6.13;;
14048;SDS011;7099;53.922;10.728;2023-06-19T03:37:25;7.78;;;6.10;;
14048;SDS011;7099;53.922;10.728;2023-06-19T03:41:30;9.00;;;6.60;;
14048;SDS011;7099;53.922;10.728;2023-06-19T03:45:36;8.43;;;6.50;;
14048;SDS011;7099;53.922;10.728;2023-06-19T03:49:41;10.45;;;6.38;;
14048;SDS011;7099;53.922;10.728;2023-06-19T03:53:47;8.63;;;5.90;;
14048;SDS011;7099;53.922;10.728;2023-06-19T03:57:53;7.65;;;5.85;;
14048;SDS011;7099;53.922;10.728;2023-06-19T04:01:58;7.80;;;6.10;;
14048;SDS011;7099;53.922;10.728;2023-06-19T04:06:04;7.70;;;5.97;;
14048;SDS011;7099;53.922;10.728;2023-06-19T04:10:10;8.93;;;6.10;;
14048;SDS011;7099;53.922;10.728;2023-06-19T04:14:16;8.27;;;6.30;;
14048;SDS011;7099;53.922;10.728;2023-06-19T04:18:22;8.18;;;6.38;;
14048;SDS011;7099;53.922;10.728;2023-06-19T04:22:27;7.10;;;6.30;;
14048;SDS011;7099;53.922;10.728;2023-06-19T04:26:33;7.83;;;6.70;;
14048;SDS011;7099;53.922;10.728;2023-06-19T04:30:38;9.73;;;6.30;;
14048;SDS011;7099;53.922;10.728;2023-06-19T04:34:44;7.72;;;6.30;;
14048;SDS011;7099;53.922;10.728;2023-06-19T04:38:50;11.50;;;6.00;;
14048;SDS011;7099;53.922;10.728;2023-06-19T04:42:57;7.77;;;6.57;;
14048;SDS011;7099;53.922;10.728;2023-06-19T04:47:04;6.67;;;5.40;;
14048;SDS011;7099;53.922;10.728;2023-06-19T04:51:10;6.43;;;5.53;;
14048;SDS011;7099;53.922;10.728;2023-06-19T04:55:15;9.70;;;5.70;;
14048;SDS011;7099;53.922;10.728;2023-06-19T04:59:21;7.60;;;6.07;;
14048;SDS011;7099;53.922;10.728;2023-06-19T05:03:26;8.63;;;6.20;;
14048;SDS011;7099;53.922;10.728;2023-06-19T05:07:32;7.23;;;6.03;;
14048;SDS011;7099;53.922;10.728;2023-06-19T05:11:37;7.40;;;6.17;;
14048;SDS011;7099;53.922;10.728;2023-06-19T05:15:43;16.70;;;6.20;;
14048;SDS011;7099;53.922;10.728;2023-06-19T05:19:49;8.13;;;6.10;;
14048;SDS011;7099;53.922;10.728;2023-06-19T05:23:55;7.20;;;6.20;;
14048;SDS011;7099;53.922;10.728;2023-06-19T05:28:00;8.67;;;6.10;;
14048;SDS011;7099;53.922;10.728;2023-06-19T05:32:09;9.57;;;6.50;;
14048;SDS011;7099;53.922;10.728;2023-06-19T05:36:15;12.40;;;6.80;;
14048;SDS011;7099;53.922;10.728;2023-06-19T05:40:20;7.10;;;5.70;;
14048;SDS011;7099;53.922;10.728;2023-06-19T05:44:26;8.43;;;6.27;;
14048;SDS011;7099;53.922;10.728;2023-06-19T05:48:32;11.50;;;6.10;;
14048;SDS011;7099;53.922;10.728;2023-06-19T05:52:37;7.33;;;6.07;;
14048;SDS011;7099;53.922;10.728;2023-06-19T05:56:47;8.17;;;6.40;;
14048;SDS011;7099;53.922;10.728;2023-06-19T06:00:55;8.23;;;5.83;;
14048;SDS011;7099;53.922;10.728;2023-06-19T06:05:02;9.67;;;5.80;;
14048;SDS011;7099;53.922;10.728;2023-06-19T06:09:08;8.93;;;5.63;;
14048;SDS011;7099;53.922;10.728;2023-06-19T06:13:17;9.20;;;6.17;;
14048;SDS011;7099;53.922;10.728;2023-06-19T06:17:22;10.70;;;6.47;;
14048;SDS011;7099;53.922;10.728;2023-06-19T06:21:28;11.07;;;6.43;;
14048;SDS011;7099;53.922;10.728;2023-06-19T06:25:33;8.93;;;6.50;;
14048;SDS011;7099;53.922;10.728;2023-06-19T06:29:39;8.33;;;5.63;;
14048;SDS011;7099;53.922;10.728;2023-06-19T06:33:44;8.57;;;6.40;;
14048;SDS011;7099;53.922;10.728;2023-06-19T06:37:50;11.33;;;6.83;;
14048;SDS011;7099;53.922;10.728;2023-06-19T06:41:55;9.13;;;7.17;;
14048;SDS011;7099;53.922;10.728;2023-06-19T06:46:01;8.33;;;6.57;;
14048;SDS011;7099;53.922;10.728;2023-06-19T06:50:07;9.70;;;7.07;;
14048;SDS011;7099;53.922;10.728;2023-06-19T06:54:14;11.60;;;7.10;;
14048;SDS011;7099;53.922;10.728;2023-06-19T06:58:20;15.53;;;7.60;;
14048;SDS011;7099;53.922;10.728;2023-06-19T07:02:25;9.30;;;6.83;;
14048;SDS011;7099;53.922;10.728;2023-06-19T07:06:31;8.00;;;7.20;;
14048;SDS011;7099;53.922;10.728;2023-06-19T07:10:37;10.47;;;6.90;;
14048;SDS011;7099;53.922;10.728;2023-06-19T07:14:42;10.23;;;7.30;;
14048;SDS011;7099;53.922;10.728;2023-06-19T07:18:48;7.67;;;6.87;;
14048;SDS011;7099;53.922;10.728;2023-06-19T07:22:53;8.07;;;7.00;;
14048;SDS011;7099;53.922;10.728;2023-06-19T07:26:59;13.37;;;7.60;;
14048;SDS011;7099;53.922;10.728;2023-06-19T07:31:05;12.10;;;7.57;;
14048;SDS011;7099;53.922;10.728;2023-06-19T07:35:10;11.37;;;7.60;;
14048;SDS011;7099;53.922;10.728;2023-06-19T07:39:16;13.03;;;7.00;;
14048;SDS011;7099;53.922;10.728;2023-06-19T07:43:21;7.63;;;6.67;;
14048;SDS011;7099;53.922;10.728;2023-06-19T07:47:27;10.93;;;7.50;;
14048;SDS011;7099;53.922;10.728;2023-06-19T07:51:33;11.43;;;7.60;;
14048;SDS011;7099;53.922;10.728;2023-06-19T07:55:38;10.57;;;7.57;;
14048;SDS011;7099;53.922;10.728;2023-06-19T07:59:44;8.87;;;6.80;;
14048;SDS011;7099;53.922;10.728;2023-06-19T08:03:50;15.40;;;7.77;;
14048;SDS011;7099;53.922;10.728;2023-06-19T08:07:56;11.40;;;8.17;;
14048;SDS011;7099;53.922;10.728;2023-06-19T08:12:03;10.90;;;8.13;;
14048;SDS011;7099;53.922;10.728;2023-06-19T08:16:09;9.80;;;7.83;;
14048;SDS011;7099;53.922;10.728;2023-06-19T08:20:15;8.70;;;7.80;;
14048;SDS011;7099;53.922;10.728;2023-06-19T08:24:21;9.40;;;7.93;;
14048;SDS011;7099;53.922;10.728;2023-06-19T08:28:26;11.10;;;8.30;;
14048;SDS011;7099;53.922;10.728;2023-06-19T08:32:31;11.83;;;9.53;;
14048;SDS011;7099;53.922;10.728;2023-06-19T08:36:39;10.70;;;8.60;;
14048;SDS011;7099;53.922;10.728;2023-06-19T08:40:45;9.53;;;7.90;;
14048;SDS011;7099;53.922;10.728;2023-06-19T08:44:50;13.47;;;9.40;;
14048;SDS011;7099;53.922;10.728;2023-06-19T08:48:56;13.37;;;8.03;;
14048;SDS011;7099;53.922;10.728;2023-06-19T08:53:02;14.00;;;8.30;;
14048;SDS011;7099;53.922;10.728;2023-06-19T08:57:07;8.57;;;7.60;;
14048;SDS011;7099;53.922;10.728;2023-06-19T09:01:18;12.07;;;8.67;;
14048;SDS011;7099;53.922;10.728;2023-06-19T09:05:24;21.43;;;9.30;;
14048;SDS011;7099;53.922;10.728;2023-06-19T09:09:30;12.07;;;8.57;;
14048;SDS011;7099;53.922;10.728;2023-06-19T09:13:37;10.87;;;8.23;;
14048;SDS011;7099;53.922;10.728;2023-06-19T09:17:43;11.90;;;8.70;;
14048;SDS011;7099;53.922;10.728;2023-06-19T09:21:49;10.40;;;8.57;;
14048;SDS011;7099;53.922;10.728;2023-06-19T09:25:56;10.03;;;8.07;;
14048;SDS011;7099;53.922;10.728;2023-06-19T09:30:04;10.80;;;8.47;;
14048;SDS011;7099;53.922;10.728;2023-06-19T09:34:10;9.17;;;8.27;;
14048;SDS011;7099;53.922;10.728;2023-06-19T09:38:16;9.33;;;7.67;;
14048;SDS011;7099;53.922;10.728;2023-06-19T09:42:25;9.80;;;7.20;;
14048;SDS011;7099;53.922;10.728;2023-06-19T09:46:39;13.80;;;8.50;;
14048;SDS011;7099;53.922;10.728;2023-06-19T09:50:50;13.63;;;8.00;;
14048;SDS011;7099;53.922;10.728;2023-06-19T09:55:01;9.43;;;8.07;;
14048;SDS011;7099;53.922;10.728;2023-06-19T09:59:09;13.40;;;7.37;;
14048;SDS011;7099;53.922;10.728;2023-06-19T10:03:15;8.37;;;7.57;;
14048;SDS011;7099;53.922;10.728;2023-06-19T10:07:22;7.77;;;7.00;;
14048;SDS011;7099;53.922;10.728;2023-06-19T10:11:43;11.53;;;7.37;;
14048;SDS011;7099;53.922;10.728;2023-06-19T10:15:59;9.80;;;7.90;;
14048;SDS011;7099;53.922;10.728;2023-06-19T10:20:05;11.13;;;8.10;;
14048;SDS011;7099;53.922;10.728;2023-06-19T10:24:19;7.83;;;6.70;;
14048;SDS011;7099;53.922;10.728;2023-06-19T10:28:29;9.60;;;7.70;;
14048;SDS011;7099;53.922;10.728;2023-06-19T10:32:37;7.60;;;6.80;;
14048;SDS011;7099;53.922;10.728;2023-06-19T10:36:43;9.80;;;6.63;;
14048;SDS011;7099;53.922;10.728;2023-06-19T10:40:49;6.80;;;6.10;;
14048;SDS011;7099;53.922;10.728;2023-06-19T10:45:04;7.00;;;6.20;;
14048;SDS011;7099;53.922;10.728;2023-06-19T10:49:13;7.90;;;7.10;;
14048;SDS011;7099;53.922;10.728;2023-06-19T10:53:22;7.20;;;6.50;;
14048;SDS011;7099;53.922;10.728;2023-06-19T10:57:36;6.93;;;6.23;;
14048;SDS011;7099;53.922;10.728;2023-06-19T11:01:44;8.20;;;6.17;;
14048;SDS011;7099;53.922;10.728;2023-06-19T11:05:51;7.10;;;5.80;;
14048;SDS011;7099;53.922;10.728;2023-06-19T11:09:57;8.60;;;6.43;;
14048;SDS011;7099;53.922;10.728;2023-06-19T11:14:03;6.70;;;6.10;;
14048;SDS011;7099;53.922;10.728;2023-06-19T11:18:09;7.87;;;6.30;;
14048;SDS011;7099;53.922;10.728;2023-06-19T11:22:15;7.17;;;6.30;;
14048;SDS011;7099;53.922;10.728;2023-06-19T11:26:20;7.07;;;6.20;;
14048;SDS011;7099;53.922;10.728;2023-06-19T11:30:30;8.83;;;6.20;;
14048;SDS011;7099;53.922;10.728;2023-06-19T11:34:40;6.43;;;5.37;;
14048;SDS011;7099;53.922;10.728;2023-06-19T11:38:46;6.20;;;5.60;;
14048;SDS011;7099;53.922;10.728;2023-06-19T11:42:52;6.30;;;4.83;;
14048;SDS011;7099;53.922;10.728;2023-06-19T11:46:58;5.73;;;5.17;;
14048;SDS011;7099;53.922;10.728;2023-06-19T11:51:05;6.27;;;5.13;;
14048;SDS011;7099;53.922;10.728;2023-06-19T11:55:10;8.60;;;5.40;;
14048;SDS011;7099;53.922;10.728;2023-06-19T11:59:16;8.77;;;5.63;;
14048;SDS011;7099;53.922;10.728;2023-06-19T12:03:21;8.43;;;5.50;;
14048;SDS011;7099;53.922;10.728;2023-06-19T12:07:27;7.60;;;5.50;;
14048;SDS011;7099;53.922;10.728;2023-06-19T12:11:32;5.23;;;4.73;;
14048;SDS011;7099;53.922;10.728;2023-06-19T12:15:38;6.13;;;5.00;;
14048;SDS011;7099;53.922;10.728;2023-06-19T12:19:43;5.13;;;4.60;;
14048;SDS011;7099;53.922;10.728;2023-06-19T12:23:49;6.90;;;5.17;;
14048;SDS011;7099;53.922;10.728;2023-06-19T12:27:54;6.17;;;5.57;;
14048;SDS011;7099;53.922;10.728;2023-06-19T12:32:01;9.40;;;5.50;;
14048;SDS011;7099;53.922;10.728;2023-06-19T12:36:07;5.90;;;5.30;;
14048;SDS011;7099;53.922;10.728;2023-06-19T12:40:14;11.43;;;5.53;;
14048;SDS011;7099;53.922;10.728;2023-06-19T12:44:21;10.93;;;5.23;;
14048;SDS011;7099;53.922;10.728;2023-06-19T12:48:28;7.23;;;5.20;;
14048;SDS011;7099;53.922;10.728;2023-06-19T12:52:34;6.43;;;5.73;;
14048;SDS011;7099;53.922;10.728;2023-06-19T12:56:39;11.37;;;6.23;;
14048;SDS011;7099;53.922;10.728;2023-06-19T13:00:45;8.23;;;6.10;;
14048;SDS011;7099;53.922;10.728;2023-06-19T13:04:51;7.27;;;6.57;;
14048;SDS011;7099;53.922;10.728;2023-06-19T13:08:57;8.40;;;7.37;;
14048;SDS011;7099;53.922;10.728;2023-06-19T13:13:03;6.97;;;6.37;;
14048;SDS011;7099;53.922;10.728;2023-06-19T13:17:10;6.67;;;6.03;;
14048;SDS011;7099;53.922;10.728;2023-06-19T13:21:15;7.97;;;7.20;;
14048;SDS011;7099;53.922;10.728;2023-06-19T13:25:21;7.83;;;6.07;;
14048;SDS011;7099;53.922;10.728;2023-06-19T13:29:27;8.57;;;6.07;;
14048;SDS011;7099;53.922;10.728;2023-06-19T13:33:33;8.63;;;6.23;;
14048;SDS011;7099;53.922;10.728;2023-06-19T13:37:38;7.70;;;6.33;;
14048;SDS011;7099;53.922;10.728;2023-06-19T13:41:44;11.70;;;7.43;;
14048;SDS011;7099;53.922;10.728;2023-06-19T13:45:50;7.70;;;7.00;;
14048;SDS011;7099;53.922;10.728;2023-06-19T13:49:56;10.40;;;6.70;;
14048;SDS011;7099;53.922;10.728;2023-06-19T13:54:01;8.57;;;6.87;;
14048;SDS011;7099;53.922;10.728;2023-06-19T13:58:09;152.93;;;14.00;;
14048;SDS011;7099;53.922;10.728;2023-06-19T14:02:14;8.03;;;7.23;;
14048;SDS011;7099;53.922;10.728;2023-06-19T14:06:20;8.17;;;6.07;;
14048;SDS011;7099;53.922;10.728;2023-06-19T14:10:25;9.03;;;6.30;;
14048;SDS011;7099;53.922;10.728;2023-06-19T14:14:31;7.33;;;6.70;;
14048;SDS011;7099;53.922;10.728;2023-06-19T14:18:36;9.67;;;7.10;;
14048;SDS011;7099;53.922;10.728;2023-06-19T14:22:42;7.27;;;6.57;;
14048;SDS011;7099;53.922;10.728;2023-06-19T14:26:48;8.13;;;6.73;;
14048;SDS011;7099;53.922;10.728;2023-06-19T14:30:53;7.17;;;6.47;;
14048;SDS011;7099;53.922;10.728;2023-06-19T14:34:59;19.00;;;6.80;;
14048;SDS011;7099;53.922;10.728;2023-06-19T14:39:05;7.17;;;6.13;;
14048;SDS011;7099;53.922;10.728;2023-06-19T14:43:10;7.40;;;6.70;;
14048;SDS011;7099;53.922;10.728;2023-06-19T14:47:16;9.23;;;7.33;;
14048;SDS011;7099;53.922;10.728;2023-06-19T14:51:21;11.20;;;6.20;;
14048;SDS011;7099;53.922;10.728;2023-06-19T14:55:27;7.30;;;6.50;;
14048;SDS011;7099;53.922;10.728;2023-06-19T14:59:32;7.20;;;6.33;;
14048;SDS011;7099;53.922;10.728;2023-06-19T15:03:38;8.97;;;6.20;;
14048;SDS011;7099;53.922;10.728;2023-06-19T15:07:43;7.13;;;6.33;;
14048;SDS011;7099;53.922;10.728;2023-06-19T15:11:49;9.30;;;5.93;;
14048;SDS011;7099;53.922;10.728;2023-06-19T15:15:54;8.83;;;6.00;;
14048;SDS011;7099;53.922;10.728;2023-06-19T15:20:00;8.70;;;6.10;;
14048;SDS011;7099;53.922;10.728;2023-06-19T15:24:06;9.90;;;6.20;;
14048;SDS011;7099;53.922;10.728;2023-06-19T15:28:12;10.57;;;5.67;;
14048;SDS011;7099;53.922;10.728;2023-06-19T15:32:18;12.40;;;5.83;;
14048;SDS011;7099;53.922;10.728;2023-06-19T15:36:23;12.20;;;6.10;;
14048;SDS011;7099;53.922;10.728;2023-06-19T15:40:29;10.20;;;5.83;;
14048;SDS011;7099;53.922;10.728;2023-06-19T15:44:35;5.77;;;4.97;;
14048;SDS011;7099;53.922;10.728;2023-06-19T15:48:41;8.17;;;5.80;;
14048;SDS011;7099;53.922;10.728;2023-06-19T15:52:48;5.70;;;5.00;;
14048;SDS011;7099;53.922;10.728;2023-06-19T15:56:53;7.67;;;5.00;;
14048;SDS011;7099;53.922;10.728;2023-06-19T16:01:02;5.70;;;4.40;;
14048;SDS011;7099;53.922;10.728;2023-06-19T16:05:08;7.00;;;5.30;;
14048;SDS011;7099;53.922;10.728;2023-06-19T16:09:13;4.00;;;3.63;;
14048;SDS011;7099;53.922;10.728;2023-06-19T16:13:19;7.53;;;4.60;;
14048;SDS011;7099;53.922;10.728;2023-06-19T16:17:24;6.40;;;4.60;;
14048;SDS011;7099;53.922;10.728;2023-06-19T16:21:30;6.10;;;4.00;;
14048;SDS011;7099;53.922;10.728;2023-06-19T16:25:36;5.67;;;4.40;;
14048;SDS011;7099;53.922;10.728;2023-06-19T16:29:41;5.47;;;4.73;;
14048;SDS011;7099;53.922;10.728;2023-06-19T16:33:47;6.43;;;4.60;;
14048;SDS011;7099;53.922;10.728;2023-06-19T16:37:53;5.83;;;4.60;;
14048;SDS011;7099;53.922;10.728;2023-06-19T16:41:59;7.47;;;4.20;;
14048;SDS011;7099;53.922;10.728;2023-06-19T16:46:05;6.63;;;4.70;;
14048;SDS011;7099;53.922;10.728;2023-06-19T16:50:10;6.73;;;4.57;;
14048;SDS011;7099;53.922;10.728;2023-06-19T16:54:15;6.10;;;4.23;;
14048;SDS011;7099;53.922;10.728;2023-06-19T16:58:25;4.73;;;3.70;;
14048;SDS011;7099;53.922;10.728;2023-06-19T17:02:31;4.43;;;4.03;;
14048;SDS011;7099;53.922;10.728;2023-06-19T17:06:36;8.43;;;4.47;;
14048;SDS011;7099;53.922;10.728;2023-06-19T17:10:42;6.03;;;4.10;;
14048;SDS011;7099;53.922;10.728;2023-06-19T17:14:47;5.87;;;4.47;;
14048;SDS011;7099;53.922;10.728;2023-06-19T17:18:53;5.73;;;4.10;;
14048;SDS011;7099;53.922;10.728;2023-06-19T17:22:59;4.23;;;3.70;;
14048;SDS011;7099;53.922;10.728;2023-06-19T17:27:04;5.00;;;4.20;;
14048;SDS011;7099;53.922;10.728;2023-06-19T17:31:10;5.60;;;4.40;;
14048;SDS011;7099;53.922;10.728;2023-06-19T17:35:16;4.30;;;3.87;;
14048;SDS011;7099;53.922;10.728;2023-06-19T17:39:22;9.10;;;3.30;;
14048;SDS011;7099;53.922;10.728;2023-06-19T17:43:27;4.03;;;3.50;;
14048;SDS011;7099;53.922;10.728;2023-06-19T17:47:33;4.57;;;3.17;;
14048;SDS011;7099;53.922;10.728;2023-06-19T17:51:38;6.40;;;3.67;;
14048;SDS011;7099;53.922;10.728;2023-06-19T17:55:44;6.23;;;3.17;;
14048;SDS011;7099;53.922;10.728;2023-06-19T17:59:49;3.80;;;3.30;;
14048;SDS011;7099;53.922;10.728;2023-06-19T18:03:55;3.60;;;3.17;;
14048;SDS011;7099;53.922;10.728;2023-06-19T18:08:01;3.97;;;3.30;;
14048;SDS011;7099;53.922;10.728;2023-06-19T18:12:07;3.27;;;2.97;;
14048;SDS011;7099;53.922;10.728;2023-06-19T18:16:14;13.53;;;3.77;;
14048;SDS011;7099;53.922;10.728;2023-06-19T18:20:19;4.43;;;2.67;;
14048;SDS011;7099;53.922;10.728;2023-06-19T18:24:25;6.43;;;3.07;;
14048;SDS011;7099;53.922;10.728;2023-06-19T18:28:31;6.37;;;3.17;;
14048;SDS011;7099;53.922;10.728;2023-06-19T18:32:36;3.30;;;3.00;;
14048;SDS011;7099;53.922;10.728;2023-06-19T18:36:42;6.47;;;3.47;;
14048;SDS011;7099;53.922;10.728;2023-06-19T18:40:48;5.10;;;3.03;;
14048;SDS011;7099;53.922;10.728;2023-06-19T18:44:53;7.50;;;3.20;;
14048;SDS011;7099;53.922;10.728;2023-06-19T18:48:59;5.00;;;3.30;;
14048;SDS011;7099;53.922;10.728;2023-06-19T18:53:04;7.23;;;3.40;;
14048;SDS011;7099;53.922;10.728;2023-06-19T18:57:11;4.97;;;3.23;;
14048;SDS011;7099;53.922;10.728;2023-06-19T19:01:17;5.77;;;3.67;;
14048;SDS011;7099;53.922;10.728;2023-06-19T19:05:22;4.03;;;3.00;;
14048;SDS011;7099;53.922;10.728;2023-06-19T19:09:28;4.83;;;3.30;;
14048;SDS011;7099;53.922;10.728;2023-06-19T19:13:33;9.50;;;3.87;;
14048;SDS011;7099;53.922;10.728;2023-06-19T19:17:39;5.80;;;3.53;;
14048;SDS011;7099;53.922;10.728;2023-06-19T19:21:44;4.63;;;3.30;;
14048;SDS011;7099;53.922;10.728;2023-06-19T19:25:50;5.33;;;3.87;;
14048;SDS011;7099;53.922;10.728;2023-06-19T19:29:55;3.60;;;3.30;;
14048;SDS011;7099;53.922;10.728;2023-06-19T19:34:02;4.17;;;3.57;;
14048;SDS011;7099;53.922;10.728;2023-06-19T19:38:07;4.57;;;4.07;;
14048;SDS011;7099;53.922;10.728;2023-06-19T19:42:13;4.83;;;4.00;;
14048;SDS011;7099;53.922;10.728;2023-06-19T19:46:20;4.90;;;3.80;;
14048;SDS011;7099;53.922;10.728;2023-06-19T19:50:26;4.60;;;3.53;;
14048;SDS011;7099;53.922;10.728;2023-06-19T19:54:32;6.13;;;4.00;;
14048;SDS011;7099;53.922;10.728;2023-06-19T19:58:37;6.90;;;3.70;;
14048;SDS011;7099;53.922;10.728;2023-06-19T20:02:43;10.73;;;4.07;;
14048;SDS011;7099;53.922;10.728;2023-06-19T20:06:49;5.43;;;4.07;;
14048;SDS011;7099;53.922;10.728;2023-06-19T20:10:55;7.00;;;4.00;;
14048;SDS011;7099;53.922;10.728;2023-06-19T20:15:00;6.83;;;4.10;;
14048;SDS011;7099;53.922;10.728;2023-06-19T20:19:09;6.20;;;4.70;;
14048;SDS011;7099;53.922;10.728;2023-06-19T20:23:14;9.20;;;4.60;;
14048;SDS011;7099;53.922;10.728;2023-06-19T20:27:20;6.83;;;4.47;;
14048;SDS011;7099;53.922;10.728;2023-06-19T20:31:26;7.10;;;4.13;;
14048;SDS011;7099;53.922;10.728;2023-06-19T20:35:32;10.10;;;4.70;;
14048;SDS011;7099;53.922;10.728;2023-06-19T20:39:38;7.30;;;4.83;;
14048;SDS011;7099;53.922;10.728;2023-06-19T20:43:43;5.53;;;4.50;;
14048;SDS011;7099;53.922;10.728;2023-06-19T20:47:53;5.00;;;4.47;;
14048;SDS011;7099;53.922;10.728;2023-06-19T20:51:59;13.50;;;5.40;;
14048;SDS011;7099;53.922;10.728;2023-06-19T20:56:04;9.47;;;4.77;;
14048;SDS011;7099;53.922;10.728;2023-06-19T21:00:10;5.83;;;5.10;;
14048;SDS011;7099;53.922;10.728;2023-06-19T21:04:17;5.73;;;5.10;;
14048;SDS011;7099;53.922;10.728;2023-06-19T21:08:23;7.00;;;5.83;;
14048;SDS011;7099;53.922;10.728;2023-06-19T21:12:35;7.00;;;5.97;;
14048;SDS011;7099;53.922;10.728;2023-06-19T21:16:41;7.23;;;5.70;;
14048;SDS011;7099;53.922;10.728;2023-06-19T21:20:47;9.23;;;6.50;;
14048;SDS011;7099;53.922;10.728;2023-06-19T21:24:55;7.20;;;5.60;;
14048;SDS011;7099;53.922;10.728;2023-06-19T21:29:00;10.10;;;6.17;;
14048;SDS011;7099;53.922;10.728;2023-06-19T21:33:06;14.13;;;5.43;;
14048;SDS011;7099;53.922;10.728;2023-06-19T21:37:11;6.23;;;5.50;;
14048;SDS011;7099;53.922;10.728;2023-06-19T21:41:17;11.93;;;6.57;;
14048;SDS011;7099;53.922;10.728;2023-06-19T21:45:22;7.20;;;5.57;;
14048;SDS011;7099;53.922;10.728;2023-06-19T21:49:29;8.30;;;6.40;;
14048;SDS011;7099;53.922;10.728;2023-06-19T21:53:34;10.50;;;6.23;;
14048;SDS011;7099;53.922;10.728;2023-06-19T21:57:40;6.43;;;5.60;;
14048;SDS011;7099;53.922;10.728;2023-06-19T22:01:50;12.90;;;6.20;;
14048;SDS011;7099;53.922;10.728;2023-06-19T22:05:55;13.60;;;6.77;;
14048;SDS011;7099;53.922;10.728;2023-06-19T22:10:01;8.57;;;6.53;;
14048;SDS011;7099;53.922;10.728;2023-06-19T22:14:08;8.03;;;6.43;;
14048;SDS011;7099;53.922;10.728;2023-06-19T22:18:15;7.50;;;6.33;;
14048;SDS011;7099;53.922;10.728;2023-06-19T22:22:22;7.23;;;6.40;;
14048;SDS011;7099;53.922;10.728;2023-06-19T22:26:28;8.37;;;5.80;;
14048;SDS011;7099;53.922;10.728;2023-06-19T22:30:41;10.40;;;6.80;;
14048;SDS011;7099;53.922;10.728;2023-06-19T22:34:47;6.77;;;5.53;;
14048;SDS011;7099;53.922;10.728;2023-06-19T22:38:52;15.80;;;6.50;;
14048;SDS011;7099;53.922;10.728;2023-06-19T22:42:58;8.97;;;6.50;;
14048;SDS011;7099;53.922;10.728;2023-06-19T22:47:03;11.13;;;6.70;;
14048;SDS011;7099;53.922;10.728;2023-06-19T22:51:09;10.67;;;6.53;;
14048;SDS011;7099;53.922;10.728;2023-06-19T22:55:15;8.50;;;6.20;;
14048;SDS011;7099;53.922;10.728;2023-06-19T22:59:21;8.90;;;7.10;;
14048;SDS011;7099;53.922;10.728;2023-06-19T23:03:26;8.77;;;6.37;;
14048;SDS011;7099;53.922;10.728;2023-06-19T23:07:32;10.97;;;7.33;;
14048;SDS011;7099;53.922;10.728;2023-06-19T23:11:38;8.73;;;6.73;;
14048;SDS011;7099;53.922;10.728;2023-06-19T23:15:44;8.93;;;7.20;;
14048;SDS011;7099;53.922;10.728;2023-06-19T23:19:50;8.70;;;7.00;;
14048;SDS011;7099;53.922;10.728;2023-06-19T23:23:55;10.60;;;7.20;;
14048;SDS011;7099;53.922;10.728;2023-06-19T23:28:02;8.67;;;6.53;;
14048;SDS011;7099;53.922;10.728;2023-06-19T23:32:07;8.70;;;6.97;;
14048;SDS011;7099;53.922;10.728;2023-06-19T23:36:13;9.33;;;7.00;;
14048;SDS011;7099;53.922;10.728;2023-06-19T23:40:18;9.30;;;6.40;;
14048;SDS011;7099;53.922;10.728;2023-06-19T23:44:24;7.97;;;7.10;;
14048;SDS011;7099;53.922;10.728;2023-06-19T23:48:29;8.57;;;6.50;;
14048;SDS011;7099;53.922;10.728;2023-06-19T23:52:35;11.47;;;7.40;;
14048;SDS011;7099;53.922;10.728;2023-06-19T23:56:48;7.60;;;6.70;;
